sensor_id;sensor_type;location;lat;lon;timestamp;temperature;humidity
79244;SHT31;68672;42.676;23.356;2023-03-19T00:01:26;20.89;36.66
79244;SHT31;68672;42.676;23.356;2023-03-19T00:04:10;20.85;36.95
79244;SHT31;68672;42.676;23.356;2023-03-19T00:06:36;20.85;36.85
79244;SHT31;68672;42.676;23.356;2023-03-19T00:09:02;20.85;36.86
79244;SHT31;68672;42.676;23.356;2023-03-19T00:11:27;20.83;37.12
79244;SHT31;68672;42.676;23.356;2023-03-19T00:13:53;20.83;36.70
79244;SHT31;68672;42.676;23.356;2023-03-19T00:16:18;20.85;36.63
79244;SHT31;68672;42.676;23.356;2023-03-19T00:18:43;20.83;36.77
79244;SHT31;68672;42.676;23.356;2023-03-19T00:21:09;20.83;36.72
79244;SHT31;68672;42.676;23.356;2023-03-19T00:23:35;20.80;36.63
79244;SHT31;68672;42.676;23.356;2023-03-19T00:26:01;20.82;37.03
79244;SHT31;68672;42.676;23.356;2023-03-19T00:28:28;20.85;36.66
79244;SHT31;68672;42.676;23.356;2023-03-19T00:30:53;20.80;36.85
79244;SHT31;68672;42.676;23.356;2023-03-19T00:33:18;20.83;37.16
79244;SHT31;68672;42.676;23.356;2023-03-19T00:35:44;20.82;36.90
79244;SHT31;68672;42.676;23.356;2023-03-19T00:38:10;20.80;37.67
79244;SHT31;68672;42.676;23.356;2023-03-19T00:40:35;20.80;36.34
79244;SHT31;68672;42.676;23.356;2023-03-19T00:43:01;20.80;36.56
79244;SHT31;68672;42.676;23.356;2023-03-19T00:45:27;20.82;36.49
79244;SHT31;68672;42.676;23.356;2023-03-19T00:47:54;20.80;36.86
79244;SHT31;68672;42.676;23.356;2023-03-19T00:50:20;20.77;36.61
79244;SHT31;68672;42.676;23.356;2023-03-19T00:52:46;20.80;37.04
79244;SHT31;68672;42.676;23.356;2023-03-19T00:55:11;20.77;37.02
79244;SHT31;68672;42.676;23.356;2023-03-19T00:57:36;20.77;36.91
79244;SHT31;68672;42.676;23.356;2023-03-19T01:00:02;20.75;36.56
79244;SHT31;68672;42.676;23.356;2023-03-19T01:02:30;20.77;36.53
79244;SHT31;68672;42.676;23.356;2023-03-19T01:04:55;20.76;36.77
79244;SHT31;68672;42.676;23.356;2023-03-19T01:07:21;20.76;36.63
79244;SHT31;68672;42.676;23.356;2023-03-19T01:09:46;20.76;36.50
79244;SHT31;68672;42.676;23.356;2023-03-19T01:12:12;20.80;36.58
79244;SHT31;68672;42.676;23.356;2023-03-19T01:14:37;20.76;36.65
79244;SHT31;68672;42.676;23.356;2023-03-19T01:17:03;20.76;36.58
79244;SHT31;68672;42.676;23.356;2023-03-19T01:19:28;20.76;36.99
79244;SHT31;68672;42.676;23.356;2023-03-19T01:21:54;20.77;36.62
79244;SHT31;68672;42.676;23.356;2023-03-19T01:24:20;20.76;36.61
79244;SHT31;68672;42.676;23.356;2023-03-19T01:26:45;20.75;36.75
79244;SHT31;68672;42.676;23.356;2023-03-19T01:29:10;20.75;36.47
79244;SHT31;68672;42.676;23.356;2023-03-19T01:31:36;20.73;36.50
79244;SHT31;68672;42.676;23.356;2023-03-19T01:34:02;20.73;36.55
79244;SHT31;68672;42.676;23.356;2023-03-19T01:36:28;20.72;36.73
79244;SHT31;68672;42.676;23.356;2023-03-19T01:38:54;20.72;36.81
79244;SHT31;68672;42.676;23.356;2023-03-19T01:41:21;20.72;36.69
79244;SHT31;68672;42.676;23.356;2023-03-19T01:43:47;20.71;36.86
79244;SHT31;68672;42.676;23.356;2023-03-19T01:46:27;20.69;36.70
79244;SHT31;68672;42.676;23.356;2023-03-19T01:48:57;20.72;36.81
79244;SHT31;68672;42.676;23.356;2023-03-19T01:51:28;20.72;36.59
79244;SHT31;68672;42.676;23.356;2023-03-19T01:53:58;20.66;36.62
79244;SHT31;68672;42.676;23.356;2023-03-19T01:56:34;20.66;36.90
79244;SHT31;68672;42.676;23.356;2023-03-19T01:59:10;20.69;36.59
79244;SHT31;68672;42.676;23.356;2023-03-19T02:02:04;20.65;36.49
79244;SHT31;68672;42.676;23.356;2023-03-19T02:04:27;20.66;36.59
79244;SHT31;68672;42.676;23.356;2023-03-19T02:06:57;20.66;37.08
79244;SHT31;68672;42.676;23.356;2023-03-19T02:09:26;20.65;36.90
79244;SHT31;68672;42.676;23.356;2023-03-19T02:11:53;20.64;36.86
79244;SHT31;68672;42.676;23.356;2023-03-19T02:14:19;20.64;36.68
79244;SHT31;68672;42.676;23.356;2023-03-19T02:16:44;20.62;36.92
79244;SHT31;68672;42.676;23.356;2023-03-19T02:19:18;20.59;36.59
79244;SHT31;68672;42.676;23.356;2023-03-19T02:21:46;20.59;36.68
79244;SHT31;68672;42.676;23.356;2023-03-19T02:24:16;20.59;36.48
79244;SHT31;68672;42.676;23.356;2023-03-19T02:26:44;20.57;36.75
79244;SHT31;68672;42.676;23.356;2023-03-19T02:29:10;20.61;36.72
79244;SHT31;68672;42.676;23.356;2023-03-19T02:31:36;20.64;36.97
79244;SHT31;68672;42.676;23.356;2023-03-19T02:36:32;20.62;37.03
79244;SHT31;68672;42.676;23.356;2023-03-19T02:39:01;20.59;36.98
79244;SHT31;68672;42.676;23.356;2023-03-19T02:41:28;20.62;37.02
79244;SHT31;68672;42.676;23.356;2023-03-19T02:43:54;20.62;36.88
79244;SHT31;68672;42.676;23.356;2023-03-19T02:46:20;20.61;36.90
79244;SHT31;68672;42.676;23.356;2023-03-19T02:48:45;20.56;37.14
79244;SHT31;68672;42.676;23.356;2023-03-19T02:51:10;20.57;36.85
79244;SHT31;68672;42.676;23.356;2023-03-19T02:53:37;20.59;37.17
79244;SHT31;68672;42.676;23.356;2023-03-19T02:56:03;20.59;37.06
79244;SHT31;68672;42.676;23.356;2023-03-19T02:58:28;20.59;36.95
79244;SHT31;68672;42.676;23.356;2023-03-19T03:00:54;20.52;36.94
79244;SHT31;68672;42.676;23.356;2023-03-19T03:03:19;20.53;37.01
79244;SHT31;68672;42.676;23.356;2023-03-19T03:05:45;20.53;36.89
79244;SHT31;68672;42.676;23.356;2023-03-19T03:08:11;20.51;37.17
79244;SHT31;68672;42.676;23.356;2023-03-19T03:10:36;20.49;36.89
79244;SHT31;68672;42.676;23.356;2023-03-19T03:13:02;20.51;36.97
79244;SHT31;68672;42.676;23.356;2023-03-19T03:15:27;20.51;36.79
79244;SHT31;68672;42.676;23.356;2023-03-19T03:17:54;20.52;36.90
79244;SHT31;68672;42.676;23.356;2023-03-19T03:20:20;20.51;36.91
79244;SHT31;68672;42.676;23.356;2023-03-19T03:22:46;20.49;37.12
79244;SHT31;68672;42.676;23.356;2023-03-19T03:25:12;20.51;36.94
79244;SHT31;68672;42.676;23.356;2023-03-19T03:27:38;20.53;37.17
79244;SHT31;68672;42.676;23.356;2023-03-19T03:30:05;20.51;36.89
79244;SHT31;68672;42.676;23.356;2023-03-19T03:32:32;20.52;36.97
79244;SHT31;68672;42.676;23.356;2023-03-19T03:34:58;20.55;36.65
79244;SHT31;68672;42.676;23.356;2023-03-19T03:37:23;20.61;37.06
79244;SHT31;68672;42.676;23.356;2023-03-19T03:39:49;20.59;36.46
79244;SHT31;68672;42.676;23.356;2023-03-19T03:42:15;20.59;37.29
79244;SHT31;68672;42.676;23.356;2023-03-19T03:44:40;20.59;37.66
79244;SHT31;68672;42.676;23.356;2023-03-19T03:47:07;20.59;37.79
79244;SHT31;68672;42.676;23.356;2023-03-19T03:49:33;20.64;36.39
79244;SHT31;68672;42.676;23.356;2023-03-19T03:51:58;20.57;36.81
79244;SHT31;68672;42.676;23.356;2023-03-19T03:54:23;20.52;36.71
79244;SHT31;68672;42.676;23.356;2023-03-19T03:56:49;20.51;36.76
79244;SHT31;68672;42.676;23.356;2023-03-19T03:59:15;20.48;36.52
79244;SHT31;68672;42.676;23.356;2023-03-19T04:01:40;20.46;36.34
79244;SHT31;68672;42.676;23.356;2023-03-19T04:04:06;20.46;36.70
79244;SHT31;68672;42.676;23.356;2023-03-19T04:06:31;20.44;36.21
79244;SHT31;68672;42.676;23.356;2023-03-19T04:08:57;20.41;36.25
79244;SHT31;68672;42.676;23.356;2023-03-19T04:11:22;20.46;36.03
79244;SHT31;68672;42.676;23.356;2023-03-19T04:13:48;20.49;36.12
79244;SHT31;68672;42.676;23.356;2023-03-19T04:16:13;20.49;35.48
79244;SHT31;68672;42.676;23.356;2023-03-19T04:18:39;20.52;35.59
79244;SHT31;68672;42.676;23.356;2023-03-19T04:21:05;20.52;35.56
79244;SHT31;68672;42.676;23.356;2023-03-19T04:23:31;20.56;35.69
79244;SHT31;68672;42.676;23.356;2023-03-19T04:25:58;20.57;35.49
79244;SHT31;68672;42.676;23.356;2023-03-19T04:28:24;20.56;35.99
79244;SHT31;68672;42.676;23.356;2023-03-19T04:30:49;20.56;35.72
79244;SHT31;68672;42.676;23.356;2023-03-19T04:33:15;20.56;35.46
79244;SHT31;68672;42.676;23.356;2023-03-19T04:35:41;20.61;35.56
79244;SHT31;68672;42.676;23.356;2023-03-19T04:38:07;20.59;35.58
79244;SHT31;68672;42.676;23.356;2023-03-19T04:40:33;20.57;35.38
79244;SHT31;68672;42.676;23.356;2023-03-19T04:42:58;20.57;35.33
79244;SHT31;68672;42.676;23.356;2023-03-19T04:45:24;20.62;35.26
79244;SHT31;68672;42.676;23.356;2023-03-19T04:47:49;20.65;35.96
79244;SHT31;68672;42.676;23.356;2023-03-19T04:50:15;20.65;35.31
79244;SHT31;68672;42.676;23.356;2023-03-19T04:52:41;20.71;35.37
79244;SHT31;68672;42.676;23.356;2023-03-19T04:55:07;20.72;35.50
79244;SHT31;68672;42.676;23.356;2023-03-19T04:57:33;20.72;36.28
79244;SHT31;68672;42.676;23.356;2023-03-19T04:59:58;20.77;35.52
79244;SHT31;68672;42.676;23.356;2023-03-19T05:02:24;20.79;35.49
79244;SHT31;68672;42.676;23.356;2023-03-19T05:04:50;20.83;35.54
79244;SHT31;68672;42.676;23.356;2023-03-19T05:07:16;20.83;35.67
79244;SHT31;68672;42.676;23.356;2023-03-19T05:09:41;20.85;35.72
79244;SHT31;68672;42.676;23.356;2023-03-19T05:12:08;20.90;35.44
79244;SHT31;68672;42.676;23.356;2023-03-19T05:14:34;20.92;35.53
79244;SHT31;68672;42.676;23.356;2023-03-19T05:16:59;20.93;35.77
79244;SHT31;68672;42.676;23.356;2023-03-19T05:19:25;20.94;35.48
79244;SHT31;68672;42.676;23.356;2023-03-19T05:21:50;20.99;35.44
79244;SHT31;68672;42.676;23.356;2023-03-19T05:24:15;21.00;35.51
79244;SHT31;68672;42.676;23.356;2023-03-19T05:26:41;21.02;35.32
79244;SHT31;68672;42.676;23.356;2023-03-19T05:29:06;21.35;35.08
79244;SHT31;68672;42.676;23.356;2023-03-19T05:31:36;21.37;34.81
79244;SHT31;68672;42.676;23.356;2023-03-19T05:34:02;21.41;34.60
79244;SHT31;68672;42.676;23.356;2023-03-19T05:36:27;21.44;34.51
79244;SHT31;68672;42.676;23.356;2023-03-19T05:38:54;21.45;34.53
79244;SHT31;68672;42.676;23.356;2023-03-19T05:41:20;21.44;34.43
79244;SHT31;68672;42.676;23.356;2023-03-19T05:43:45;21.48;34.42
79244;SHT31;68672;42.676;23.356;2023-03-19T05:46:11;21.47;34.45
79244;SHT31;68672;42.676;23.356;2023-03-19T05:48:36;21.48;34.49
79244;SHT31;68672;42.676;23.356;2023-03-19T05:51:02;21.44;34.71
79244;SHT31;68672;42.676;23.356;2023-03-19T05:53:28;21.50;34.45
79244;SHT31;68672;42.676;23.356;2023-03-19T05:55:53;21.48;34.44
79244;SHT31;68672;42.676;23.356;2023-03-19T05:58:19;21.47;34.45
79244;SHT31;68672;42.676;23.356;2023-03-19T06:00:44;21.51;34.49
79244;SHT31;68672;42.676;23.356;2023-03-19T06:03:10;21.50;34.50
79244;SHT31;68672;42.676;23.356;2023-03-19T06:05:35;21.50;34.47
79244;SHT31;68672;42.676;23.356;2023-03-19T06:08:01;21.50;34.42
79244;SHT31;68672;42.676;23.356;2023-03-19T06:10:26;21.51;34.53
79244;SHT31;68672;42.676;23.356;2023-03-19T06:12:51;21.51;34.49
79244;SHT31;68672;42.676;23.356;2023-03-19T06:15:17;21.48;34.59
79244;SHT31;68672;42.676;23.356;2023-03-19T06:17:42;21.51;34.46
79244;SHT31;68672;42.676;23.356;2023-03-19T06:20:10;21.50;34.34
79244;SHT31;68672;42.676;23.356;2023-03-19T06:22:35;21.50;34.34
79244;SHT31;68672;42.676;23.356;2023-03-19T06:25:01;21.50;34.47
79244;SHT31;68672;42.676;23.356;2023-03-19T06:27:26;21.47;34.48
79244;SHT31;68672;42.676;23.356;2023-03-19T06:29:52;21.48;34.51
79244;SHT31;68672;42.676;23.356;2023-03-19T06:32:17;21.51;34.37
79244;SHT31;68672;42.676;23.356;2023-03-19T06:34:43;21.47;34.42
79244;SHT31;68672;42.676;23.356;2023-03-19T06:37:08;21.47;34.42
79244;SHT31;68672;42.676;23.356;2023-03-19T06:39:34;21.50;34.48
79244;SHT31;68672;42.676;23.356;2023-03-19T06:41:59;21.48;34.41
79244;SHT31;68672;42.676;23.356;2023-03-19T06:44:25;21.48;34.45
79244;SHT31;68672;42.676;23.356;2023-03-19T06:46:50;21.50;34.41
79244;SHT31;68672;42.676;23.356;2023-03-19T06:49:16;21.48;34.41
79244;SHT31;68672;42.676;23.356;2023-03-19T06:51:42;21.47;34.47
79244;SHT31;68672;42.676;23.356;2023-03-19T06:54:07;21.51;34.41
79244;SHT31;68672;42.676;23.356;2023-03-19T06:56:33;21.48;34.49
79244;SHT31;68672;42.676;23.356;2023-03-19T06:58:58;21.48;34.59
79244;SHT31;68672;42.676;23.356;2023-03-19T07:01:24;21.43;34.66
79244;SHT31;68672;42.676;23.356;2023-03-19T07:03:49;21.37;34.64
79244;SHT31;68672;42.676;23.356;2023-03-19T07:06:15;21.33;35.45
79244;SHT31;68672;42.676;23.356;2023-03-19T07:08:40;21.33;34.74
79244;SHT31;68672;42.676;23.356;2023-03-19T07:11:10;21.31;35.08
79244;SHT31;68672;42.676;23.356;2023-03-19T07:13:36;21.30;34.97
79244;SHT31;68672;42.676;23.356;2023-03-19T07:16:02;21.33;35.40
79244;SHT31;68672;42.676;23.356;2023-03-19T07:18:28;21.30;34.92
79244;SHT31;68672;42.676;23.356;2023-03-19T07:20:53;21.30;35.00
79244;SHT31;68672;42.676;23.356;2023-03-19T07:23:19;21.31;35.15
79244;SHT31;68672;42.676;23.356;2023-03-19T07:25:44;21.30;35.13
79244;SHT31;68672;42.676;23.356;2023-03-19T07:28:11;21.35;35.37
79244;SHT31;68672;42.676;23.356;2023-03-19T07:30:36;21.37;34.95
79244;SHT31;68672;42.676;23.356;2023-03-19T07:33:03;21.41;35.23
79244;SHT31;68672;42.676;23.356;2023-03-19T07:35:28;21.41;35.06
79244;SHT31;68672;42.676;23.356;2023-03-19T07:37:54;21.41;35.07
79244;SHT31;68672;42.676;23.356;2023-03-19T07:40:20;21.41;35.05
79244;SHT31;68672;42.676;23.356;2023-03-19T07:42:45;21.40;35.10
79244;SHT31;68672;42.676;23.356;2023-03-19T07:45:11;21.34;35.59
79244;SHT31;68672;42.676;23.356;2023-03-19T07:47:36;21.33;35.56
79244;SHT31;68672;42.676;23.356;2023-03-19T07:50:02;21.34;35.60
79244;SHT31;68672;42.676;23.356;2023-03-19T07:52:28;21.35;36.11
79244;SHT31;68672;42.676;23.356;2023-03-19T07:54:53;21.34;35.40
79244;SHT31;68672;42.676;23.356;2023-03-19T08:11:18;18.46;25.15
79244;SHT31;68672;42.676;23.356;2023-03-19T08:13:44;16.29;28.29
79244;SHT31;68672;42.676;23.356;2023-03-19T08:16:09;14.27;31.18
79244;SHT31;68672;42.676;23.356;2023-03-19T08:18:35;13.04;34.24
79244;SHT31;68672;42.676;23.356;2023-03-19T08:21:01;11.94;34.77
79244;SHT31;68672;42.676;23.356;2023-03-19T08:23:27;10.89;37.53
79244;SHT31;68672;42.676;23.356;2023-03-19T08:25:52;10.50;37.69
79244;SHT31;68672;42.676;23.356;2023-03-19T08:28:19;9.75;39.30
79244;SHT31;68672;42.676;23.356;2023-03-19T08:30:45;9.23;40.76
79244;SHT31;68672;42.676;23.356;2023-03-19T08:33:10;9.10;41.76
79244;SHT31;68672;42.676;23.356;2023-03-19T08:35:36;8.86;42.92
79244;SHT31;68672;42.676;23.356;2023-03-19T08:38:01;8.84;43.20
79244;SHT31;68672;42.676;23.356;2023-03-19T08:40:27;8.69;42.84
79244;SHT31;68672;42.676;23.356;2023-03-19T08:42:53;8.75;42.29
79244;SHT31;68672;42.676;23.356;2023-03-19T08:45:19;8.62;42.98
79244;SHT31;68672;42.676;23.356;2023-03-19T08:47:45;8.69;43.03
79244;SHT31;68672;42.676;23.356;2023-03-19T09:44:46;12.15;34.84
79244;SHT31;68672;42.676;23.356;2023-03-19T09:50:05;13.03;32.94
79244;SHT31;68672;42.676;23.356;2023-03-19T09:57:49;15.28;30.01
79244;SHT31;68672;42.676;23.356;2023-03-19T10:16:23;21.55;21.83
79244;SHT31;68672;42.676;23.356;2023-03-19T10:18:51;21.88;20.42
79244;SHT31;68672;42.676;23.356;2023-03-19T10:21:46;22.44;19.83
79244;SHT31;68672;42.676;23.356;2023-03-19T10:24:33;23.86;20.16
79244;SHT31;68672;42.676;23.356;2023-03-19T10:27:08;24.27;18.55
79244;SHT31;68672;42.676;23.356;2023-03-19T10:29:36;24.99;18.89
79244;SHT31;68672;42.676;23.356;2023-03-19T10:34:52;25.88;17.74
79244;SHT31;68672;42.676;23.356;2023-03-19T10:37:23;26.15;17.29
79244;SHT31;68672;42.676;23.356;2023-03-19T10:39:52;26.64;16.83
79244;SHT31;68672;42.676;23.356;2023-03-19T10:43:05;27.58;16.65
79244;SHT31;68672;42.676;23.356;2023-03-19T10:45:33;27.17;16.36
79244;SHT31;68672;42.676;23.356;2023-03-19T10:48:01;27.88;16.16
79244;SHT31;68672;42.676;23.356;2023-03-19T10:50:45;28.92;15.41
79244;SHT31;68672;42.676;23.356;2023-03-19T10:55:45;30.27;14.37
79244;SHT31;68672;42.676;23.356;2023-03-19T10:58:17;32.71;13.14
79244;SHT31;68672;42.676;23.356;2023-03-19T11:00:47;34.40;12.71
79244;SHT31;68672;42.676;23.356;2023-03-19T11:03:31;35.84;12.10
79244;SHT31;68672;42.676;23.356;2023-03-19T11:08:35;36.90;11.47
79244;SHT31;68672;42.676;23.356;2023-03-19T11:11:02;37.60;10.90
79244;SHT31;68672;42.676;23.356;2023-03-19T11:13:28;38.02;10.96
79244;SHT31;68672;42.676;23.356;2023-03-19T11:15:58;38.45;10.41
79244;SHT31;68672;42.676;23.356;2023-03-19T11:18:30;38.14;10.45
79244;SHT31;68672;42.676;23.356;2023-03-19T11:21:13;37.80;10.72
79244;SHT31;68672;42.676;23.356;2023-03-19T11:23:51;38.19;10.65
79244;SHT31;68672;42.676;23.356;2023-03-19T11:26:18;37.91;10.63
79244;SHT31;68672;42.676;23.356;2023-03-19T11:28:51;36.74;11.07
79244;SHT31;68672;42.676;23.356;2023-03-19T11:33:56;35.79;11.83
79244;SHT31;68672;42.676;23.356;2023-03-19T11:42:27;33.08;13.11
79244;SHT31;68672;42.676;23.356;2023-03-19T11:45:12;33.10;12.91
79244;SHT31;68672;42.676;23.356;2023-03-19T11:55:56;35.19;12.26
79244;SHT31;68672;42.676;23.356;2023-03-19T12:01:19;36.93;11.54
79244;SHT31;68672;42.676;23.356;2023-03-19T12:15:15;36.62;11.48
79244;SHT31;68672;42.676;23.356;2023-03-19T12:20:55;35.64;12.06
79244;SHT31;68672;42.676;23.356;2023-03-19T12:23:38;35.91;12.08
79244;SHT31;68672;42.676;23.356;2023-03-19T12:26:17;36.00;12.13
79244;SHT31;68672;42.676;23.356;2023-03-19T12:28:53;34.82;12.49
79244;SHT31;68672;42.676;23.356;2023-03-19T12:34:26;33.44;13.15
79244;SHT31;68672;42.676;23.356;2023-03-19T12:37:05;33.51;13.18
79244;SHT31;68672;42.676;23.356;2023-03-19T12:39:39;34.47;12.59
79244;SHT31;68672;42.676;23.356;2023-03-19T12:42:10;34.75;12.46
79244;SHT31;68672;42.676;23.356;2023-03-19T12:44:44;35.05;12.65
79244;SHT31;68672;42.676;23.356;2023-03-19T12:47:27;35.90;12.34
79244;SHT31;68672;42.676;23.356;2023-03-19T12:52:35;36.69;11.51
79244;SHT31;68672;42.676;23.356;2023-03-19T13:12:05;34.02;12.96
79244;SHT31;68672;42.676;23.356;2023-03-19T13:23:28;30.10;15.29
79244;SHT31;68672;42.676;23.356;2023-03-19T13:25:56;29.40;15.66
79244;SHT31;68672;42.676;23.356;2023-03-19T13:28:34;29.09;15.89
79244;SHT31;68672;42.676;23.356;2023-03-19T13:31:27;28.79;16.16
79244;SHT31;68672;42.676;23.356;2023-03-19T13:34:06;28.65;16.22
79244;SHT31;68672;42.676;23.356;2023-03-19T13:36:43;28.37;16.65
79244;SHT31;68672;42.676;23.356;2023-03-19T13:39:14;27.96;16.78
79244;SHT31;68672;42.676;23.356;2023-03-19T13:52:40;26.84;18.00
79244;SHT31;68672;42.676;23.356;2023-03-19T13:56:10;26.50;17.90
79244;SHT31;68672;42.676;23.356;2023-03-19T13:58:29;26.36;18.35
79244;SHT31;68672;42.676;23.356;2023-03-19T14:06:50;25.48;19.17
79244;SHT31;68672;42.676;23.356;2023-03-19T14:09:39;25.26;19.36
79244;SHT31;68672;42.676;23.356;2023-03-19T14:25:57;23.37;20.74
79244;SHT31;68672;42.676;23.356;2023-03-19T14:31:20;22.98;21.37
79244;SHT31;68672;42.676;23.356;2023-03-19T14:36:44;23.63;21.00
79244;SHT31;68672;42.676;23.356;2023-03-19T14:39:32;23.84;20.31
79244;SHT31;68672;42.676;23.356;2023-03-19T14:53:14;23.12;21.10
79244;SHT31;68672;42.676;23.356;2023-03-19T14:55:48;22.88;21.47
79244;SHT31;68672;42.676;23.356;2023-03-19T14:58:14;22.57;21.78
79244;SHT31;68672;42.676;23.356;2023-03-19T15:00:45;22.46;22.17
79244;SHT31;68672;42.676;23.356;2023-03-19T15:03:40;22.35;22.26
79244;SHT31;68672;42.676;23.356;2023-03-19T15:06:11;22.19;22.38
79244;SHT31;68672;42.676;23.356;2023-03-19T15:08:39;21.98;22.50
79244;SHT31;68672;42.676;23.356;2023-03-19T15:19:08;20.97;24.36
79244;SHT31;68672;42.676;23.356;2023-03-19T15:21:38;20.71;24.55
79244;SHT31;68672;42.676;23.356;2023-03-19T15:24:04;20.42;24.52
79244;SHT31;68672;42.676;23.356;2023-03-19T15:26:35;20.21;24.74
79244;SHT31;68672;42.676;23.356;2023-03-19T15:29:02;19.97;24.99
79244;SHT31;68672;42.676;23.356;2023-03-19T15:31:45;19.71;24.92
79244;SHT31;68672;42.676;23.356;2023-03-19T15:34:28;19.42;25.13
79244;SHT31;68672;42.676;23.356;2023-03-19T15:37:03;19.26;25.60
79244;SHT31;68672;42.676;23.356;2023-03-19T15:39:34;19.08;25.68
79244;SHT31;68672;42.676;23.356;2023-03-19T15:42:03;18.79;26.08
79244;SHT31;68672;42.676;23.356;2023-03-19T15:44:38;18.50;26.13
79244;SHT31;68672;42.676;23.356;2023-03-19T15:47:09;18.34;26.47
79244;SHT31;68672;42.676;23.356;2023-03-19T15:49:38;18.17;26.72
79244;SHT31;68672;42.676;23.356;2023-03-19T15:52:06;18.10;26.89
79244;SHT31;68672;42.676;23.356;2023-03-19T15:54:33;17.92;27.24
79244;SHT31;68672;42.676;23.356;2023-03-19T15:56:59;17.85;27.31
79244;SHT31;68672;42.676;23.356;2023-03-19T15:59:27;17.75;27.71
79244;SHT31;68672;42.676;23.356;2023-03-19T16:02:00;17.67;27.52
79244;SHT31;68672;42.676;23.356;2023-03-19T16:04:27;17.47;27.80
79244;SHT31;68672;42.676;23.356;2023-03-19T16:06:55;17.37;28.10
79244;SHT31;68672;42.676;23.356;2023-03-19T16:11:59;17.27;28.32
79244;SHT31;68672;42.676;23.356;2023-03-19T16:14:44;17.17;28.11
79244;SHT31;68672;42.676;23.356;2023-03-19T16:17:11;17.06;28.22
79244;SHT31;68672;42.676;23.356;2023-03-19T16:19:46;17.02;28.61
79244;SHT31;68672;42.676;23.356;2023-03-19T16:22:16;16.90;28.72
79244;SHT31;68672;42.676;23.356;2023-03-19T16:24:45;16.80;28.95
79244;SHT31;68672;42.676;23.356;2023-03-19T16:27:13;16.66;29.29
79244;SHT31;68672;42.676;23.356;2023-03-19T16:29:47;16.62;29.45
79244;SHT31;68672;42.676;23.356;2023-03-19T16:32:23;16.53;29.79
79244;SHT31;68672;42.676;23.356;2023-03-19T16:35:02;16.48;30.00
79244;SHT31;68672;42.676;23.356;2023-03-19T16:42:42;16.12;31.05
79244;SHT31;68672;42.676;23.356;2023-03-19T16:47:39;15.93;31.62
79244;SHT31;68672;42.676;23.356;2023-03-19T16:50:05;15.81;32.07
79244;SHT31;68672;42.676;23.356;2023-03-19T16:52:31;15.73;32.24
79244;SHT31;68672;42.676;23.356;2023-03-19T16:54:58;15.63;32.58
79244;SHT31;68672;42.676;23.356;2023-03-19T16:57:25;15.54;32.68
79244;SHT31;68672;42.676;23.356;2023-03-19T16:59:50;15.50;33.14
79244;SHT31;68672;42.676;23.356;2023-03-19T17:02:17;15.42;33.51
79244;SHT31;68672;42.676;23.356;2023-03-19T17:04:43;15.40;33.60
79244;SHT31;68672;42.676;23.356;2023-03-19T17:07:09;15.28;33.84
79244;SHT31;68672;42.676;23.356;2023-03-19T17:09:35;15.19;34.17
79244;SHT31;68672;42.676;23.356;2023-03-19T17:12:02;15.09;34.26
79244;SHT31;68672;42.676;23.356;2023-03-19T17:14:29;14.98;34.57
79244;SHT31;68672;42.676;23.356;2023-03-19T17:16:55;14.93;34.95
79244;SHT31;68672;42.676;23.356;2023-03-19T17:19:27;14.82;35.18
79244;SHT31;68672;42.676;23.356;2023-03-19T17:21:57;14.70;35.57
79244;SHT31;68672;42.676;23.356;2023-03-19T17:24:33;14.64;35.85
79244;SHT31;68672;42.676;23.356;2023-03-19T17:27:00;14.58;36.10
79244;SHT31;68672;42.676;23.356;2023-03-19T17:29:27;14.52;36.35
79244;SHT31;68672;42.676;23.356;2023-03-19T17:32:00;14.44;36.47
79244;SHT31;68672;42.676;23.356;2023-03-19T17:34:28;14.33;36.42
79244;SHT31;68672;42.676;23.356;2023-03-19T17:36:59;14.23;36.76
79244;SHT31;68672;42.676;23.356;2023-03-19T17:39:26;14.16;37.07
79244;SHT31;68672;42.676;23.356;2023-03-19T17:41:54;14.03;37.19
79244;SHT31;68672;42.676;23.356;2023-03-19T17:44:20;13.95;37.50
79244;SHT31;68672;42.676;23.356;2023-03-19T17:46:48;13.86;37.56
79244;SHT31;68672;42.676;23.356;2023-03-19T17:51:42;13.72;37.76
79244;SHT31;68672;42.676;23.356;2023-03-19T17:54:10;13.65;38.12
79244;SHT31;68672;42.676;23.356;2023-03-19T17:56:36;13.57;38.85
79244;SHT31;68672;42.676;23.356;2023-03-19T17:59:02;13.54;39.56
79244;SHT31;68672;42.676;23.356;2023-03-19T18:01:28;13.48;40.17
79244;SHT31;68672;42.676;23.356;2023-03-19T18:03:55;13.41;39.94
79244;SHT31;68672;42.676;23.356;2023-03-19T18:06:24;13.37;39.58
79244;SHT31;68672;42.676;23.356;2023-03-19T18:08:49;13.27;39.19
79244;SHT31;68672;42.676;23.356;2023-03-19T18:11:21;13.21;39.45
79244;SHT31;68672;42.676;23.356;2023-03-19T18:13:46;13.21;40.41
79244;SHT31;68672;42.676;23.356;2023-03-19T18:16:23;13.10;40.82
79244;SHT31;68672;42.676;23.356;2023-03-19T18:18:50;12.99;40.93
79244;SHT31;68672;42.676;23.356;2023-03-19T18:21:16;12.90;41.17
79244;SHT31;68672;42.676;23.356;2023-03-19T18:23:43;12.84;41.09
79244;SHT31;68672;42.676;23.356;2023-03-19T18:26:12;12.82;41.32
79244;SHT31;68672;42.676;23.356;2023-03-19T18:28:40;12.76;41.43
79244;SHT31;68672;42.676;23.356;2023-03-19T18:31:13;12.75;41.58
79244;SHT31;68672;42.676;23.356;2023-03-19T18:33:40;12.70;41.68
79244;SHT31;68672;42.676;23.356;2023-03-19T18:36:08;12.63;41.58
79244;SHT31;68672;42.676;23.356;2023-03-19T18:38:36;12.52;41.57
79244;SHT31;68672;42.676;23.356;2023-03-19T18:41:04;12.43;41.78
79244;SHT31;68672;42.676;23.356;2023-03-19T18:43:29;12.36;41.94
79244;SHT31;68672;42.676;23.356;2023-03-19T18:45:58;12.33;41.97
79244;SHT31;68672;42.676;23.356;2023-03-19T18:48:25;12.29;42.46
79244;SHT31;68672;42.676;23.356;2023-03-19T18:50:57;12.24;42.68
79244;SHT31;68672;42.676;23.356;2023-03-19T18:53:23;12.18;42.60
79244;SHT31;68672;42.676;23.356;2023-03-19T18:55:49;12.21;42.43
79244;SHT31;68672;42.676;23.356;2023-03-19T18:58:41;12.18;42.06
79244;SHT31;68672;42.676;23.356;2023-03-19T19:01:08;12.21;40.12
79244;SHT31;68672;42.676;23.356;2023-03-19T19:03:37;12.21;39.88
79244;SHT31;68672;42.676;23.356;2023-03-19T19:06:05;12.20;40.06
79244;SHT31;68672;42.676;23.356;2023-03-19T19:08:34;12.17;41.58
79244;SHT31;68672;42.676;23.356;2023-03-19T19:11:01;12.15;41.53
79244;SHT31;68672;42.676;23.356;2023-03-19T19:13:32;12.06;42.45
79244;SHT31;68672;42.676;23.356;2023-03-19T19:16:00;12.04;42.88
79244;SHT31;68672;42.676;23.356;2023-03-19T19:18:29;11.98;43.17
79244;SHT31;68672;42.676;23.356;2023-03-19T19:20:56;11.95;43.31
79244;SHT31;68672;42.676;23.356;2023-03-19T19:23:23;11.87;43.09